sensor_id;sensor_type;location;lat;lon;timestamp;temperature;humidity
4695;DHT22;2361;49.540;8.390;2023-04-19T00:00:43;12.30;99.90
4695;DHT22;2361;49.540;8.390;2023-04-19T00:03:10;12.20;99.90
4695;DHT22;2361;49.540;8.390;2023-04-19T00:05:37;12.20;99.90
4695;DHT22;2361;49.540;8.390;2023-04-19T00:08:04;12.20;99.90
4695;DHT22;2361;49.540;8.390;2023-04-19T00:10:32;12.20;99.90
4695;DHT22;2361;49.540;8.390;2023-04-19T00:13:01;12.20;99.90
4695;DHT22;2361;49.540;8.390;2023-04-19T00:15:28;12.20;99.90
4695;DHT22;2361;49.540;8.390;2023-04-19T00:17:55;12.10;99.90
4695;DHT22;2361;49.540;8.390;2023-04-19T00:20:22;12.10;99.90
4695;DHT22;2361;49.540;8.390;2023-04-19T00:22:49;12.10;99.90
4695;DHT22;2361;49.540;8.390;2023-04-19T00:25:16;12.10;99.90
4695;DHT22;2361;49.540;8.390;2023-04-19T00:27:43;12.10;99.90
4695;DHT22;2361;49.540;8.390;2023-04-19T00:30:10;12.10;99.90
4695;DHT22;2361;49.540;8.390;2023-04-19T00:32:37;12.00;99.90
4695;DHT22;2361;49.540;8.390;2023-04-19T00:35:05;12.00;99.90
4695;DHT22;2361;49.540;8.390;2023-04-19T00:37:32;12.00;99.90
4695;DHT22;2361;49.540;8.390;2023-04-19T00:39:59;12.00;99.90
4695;DHT22;2361;49.540;8.390;2023-04-19T00:42:26;12.00;99.90
4695;DHT22;2361;49.540;8.390;2023-04-19T00:44:53;12.10;99.90
4695;DHT22;2361;49.540;8.390;2023-04-19T00:47:20;12.00;99.90
4695;DHT22;2361;49.540;8.390;2023-04-19T00:49:47;12.00;99.90
4695;DHT22;2361;49.540;8.390;2023-04-19T00:52:14;12.00;99.90
4695;DHT22;2361;49.540;8.390;2023-04-19T00:54:42;11.90;99.90
4695;DHT22;2361;49.540;8.390;2023-04-19T00:57:10;11.90;99.90
4695;DHT22;2361;49.540;8.390;2023-04-19T00:59:38;11.90;99.90
4695;DHT22;2361;49.540;8.390;2023-04-19T01:02:05;11.90;99.90
4695;DHT22;2361;49.540;8.390;2023-04-19T01:04:32;11.90;99.90
4695;DHT22;2361;49.540;8.390;2023-04-19T01:07:00;11.90;99.90
4695;DHT22;2361;49.540;8.390;2023-04-19T01:09:28;11.90;99.90
4695;DHT22;2361;49.540;8.390;2023-04-19T01:11:55;11.90;99.90
4695;DHT22;2361;49.540;8.390;2023-04-19T01:14:22;11.90;99.90
4695;DHT22;2361;49.540;8.390;2023-04-19T01:16:49;11.90;99.90
4695;DHT22;2361;49.540;8.390;2023-04-19T01:19:17;11.90;99.90
4695;DHT22;2361;49.540;8.390;2023-04-19T01:21:44;11.90;99.90
4695;DHT22;2361;49.540;8.390;2023-04-19T01:24:11;11.80;99.90
4695;DHT22;2361;49.540;8.390;2023-04-19T01:26:38;11.90;99.90
4695;DHT22;2361;49.540;8.390;2023-04-19T01:29:05;11.90;99.90
4695;DHT22;2361;49.540;8.390;2023-04-19T01:31:33;11.90;99.90
4695;DHT22;2361;49.540;8.390;2023-04-19T01:34:00;11.90;99.90
4695;DHT22;2361;49.540;8.390;2023-04-19T01:36:27;11.80;99.90
4695;DHT22;2361;49.540;8.390;2023-04-19T01:38:55;11.80;99.90
4695;DHT22;2361;49.540;8.390;2023-04-19T01:41:22;11.80;99.90
4695;DHT22;2361;49.540;8.390;2023-04-19T01:43:52;11.90;99.90
4695;DHT22;2361;49.540;8.390;2023-04-19T01:46:19;11.80;99.90
4695;DHT22;2361;49.540;8.390;2023-04-19T01:48:46;11.90;99.90
4695;DHT22;2361;49.540;8.390;2023-04-19T01:51:13;11.90;99.90
4695;DHT22;2361;49.540;8.390;2023-04-19T01:53:42;11.90;99.90
4695;DHT22;2361;49.540;8.390;2023-04-19T01:56:09;11.90;99.90
4695;DHT22;2361;49.540;8.390;2023-04-19T01:58:36;11.80;99.90
4695;DHT22;2361;49.540;8.390;2023-04-19T02:01:03;11.80;99.90
4695;DHT22;2361;49.540;8.390;2023-04-19T02:03:30;11.80;99.90
4695;DHT22;2361;49.540;8.390;2023-04-19T02:05:57;11.80;99.90
4695;DHT22;2361;49.540;8.390;2023-04-19T02:08:25;11.70;99.90
4695;DHT22;2361;49.540;8.390;2023-04-19T02:10:53;11.80;99.90
4695;DHT22;2361;49.540;8.390;2023-04-19T02:13:20;11.80;99.90
4695;DHT22;2361;49.540;8.390;2023-04-19T02:15:47;11.70;99.90
4695;DHT22;2361;49.540;8.390;2023-04-19T02:18:14;11.80;99.90
4695;DHT22;2361;49.540;8.390;2023-04-19T02:20:43;11.80;99.90
4695;DHT22;2361;49.540;8.390;2023-04-19T02:23:09;11.80;99.90
4695;DHT22;2361;49.540;8.390;2023-04-19T02:25:37;11.80;99.90
4695;DHT22;2361;49.540;8.390;2023-04-19T02:28:04;11.80;99.90
4695;DHT22;2361;49.540;8.390;2023-04-19T02:30:31;11.80;99.90
4695;DHT22;2361;49.540;8.390;2023-04-19T02:32:58;11.80;99.90
4695;DHT22;2361;49.540;8.390;2023-04-19T02:35:25;11.80;99.90
4695;DHT22;2361;49.540;8.390;2023-04-19T02:37:52;11.80;99.90
4695;DHT22;2361;49.540;8.390;2023-04-19T02:40:19;11.80;99.90
4695;DHT22;2361;49.540;8.390;2023-04-19T02:42:48;11.80;99.90
4695;DHT22;2361;49.540;8.390;2023-04-19T02:45:15;11.70;99.90
4695;DHT22;2361;49.540;8.390;2023-04-19T02:47:42;11.70;99.90
4695;DHT22;2361;49.540;8.390;2023-04-19T02:50:09;11.70;99.90
4695;DHT22;2361;49.540;8.390;2023-04-19T02:52:37;11.70;99.90
4695;DHT22;2361;49.540;8.390;2023-04-19T02:55:05;11.70;99.90
4695;DHT22;2361;49.540;8.390;2023-04-19T02:57:33;11.70;99.90
4695;DHT22;2361;49.540;8.390;2023-04-19T03:00:00;11.70;99.90
4695;DHT22;2361;49.540;8.390;2023-04-19T03:02:27;11.70;99.90
4695;DHT22;2361;49.540;8.390;2023-04-19T03:04:53;11.70;99.90
4695;DHT22;2361;49.540;8.390;2023-04-19T03:07:22;11.70;99.90
4695;DHT22;2361;49.540;8.390;2023-04-19T03:09:49;11.80;99.90
4695;DHT22;2361;49.540;8.390;2023-04-19T03:12:16;11.80;99.90
4695;DHT22;2361;49.540;8.390;2023-04-19T03:14:43;11.80;99.90
4695;DHT22;2361;49.540;8.390;2023-04-19T03:17:10;11.80;99.90
4695;DHT22;2361;49.540;8.390;2023-04-19T03:19:37;11.80;99.90
4695;DHT22;2361;49.540;8.390;2023-04-19T03:22:04;11.90;99.90
4695;DHT22;2361;49.540;8.390;2023-04-19T03:24:31;11.80;99.90
4695;DHT22;2361;49.540;8.390;2023-04-19T03:27:01;11.70;99.90
4695;DHT22;2361;49.540;8.390;2023-04-19T03:29:28;11.70;99.90
4695;DHT22;2361;49.540;8.390;2023-04-19T03:31:56;11.70;99.90
4695;DHT22;2361;49.540;8.390;2023-04-19T03:34:23;11.70;99.90
4695;DHT22;2361;49.540;8.390;2023-04-19T03:36:49;11.70;99.90
4695;DHT22;2361;49.540;8.390;2023-04-19T03:39:16;11.70;99.90
4695;DHT22;2361;49.540;8.390;2023-04-19T03:41:43;11.60;99.90
4695;DHT22;2361;49.540;8.390;2023-04-19T03:44:13;11.60;99.90
4695;DHT22;2361;49.540;8.390;2023-04-19T03:46:40;11.60;99.90
4695;DHT22;2361;49.540;8.390;2023-04-19T03:49:08;11.50;99.90
4695;DHT22;2361;49.540;8.390;2023-04-19T03:51:35;11.50;99.90
4695;DHT22;2361;49.540;8.390;2023-04-19T03:54:02;11.50;99.90
4695;DHT22;2361;49.540;8.390;2023-04-19T03:56:30;11.60;99.90
4695;DHT22;2361;49.540;8.390;2023-04-19T03:58:59;11.60;99.90
4695;DHT22;2361;49.540;8.390;2023-04-19T04:01:27;11.60;99.90
4695;DHT22;2361;49.540;8.390;2023-04-19T04:03:54;11.60;99.90
4695;DHT22;2361;49.540;8.390;2023-04-19T04:06:22;11.60;99.90
4695;DHT22;2361;49.540;8.390;2023-04-19T04:08:49;11.60;99.90
4695;DHT22;2361;49.540;8.390;2023-04-19T04:11:18;11.70;99.90
4695;DHT22;2361;49.540;8.390;2023-04-19T04:13:46;11.70;99.90
4695;DHT22;2361;49.540;8.390;2023-04-19T04:16:14;11.60;99.90
4695;DHT22;2361;49.540;8.390;2023-04-19T04:18:43;11.60;99.90
4695;DHT22;2361;49.540;8.390;2023-04-19T04:21:10;11.60;99.90
4695;DHT22;2361;49.540;8.390;2023-04-19T04:23:37;11.60;99.90
4695;DHT22;2361;49.540;8.390;2023-04-19T04:26:04;11.60;99.90
4695;DHT22;2361;49.540;8.390;2023-04-19T04:28:35;11.50;99.90
4695;DHT22;2361;49.540;8.390;2023-04-19T04:31:02;11.40;99.90
4695;DHT22;2361;49.540;8.390;2023-04-19T04:33:29;11.40;99.90
4695;DHT22;2361;49.540;8.390;2023-04-19T04:35:56;11.40;99.90
4695;DHT22;2361;49.540;8.390;2023-04-19T04:38:24;11.30;99.90
4695;DHT22;2361;49.540;8.390;2023-04-19T04:40:53;11.30;99.90
4695;DHT22;2361;49.540;8.390;2023-04-19T04:43:22;11.20;99.90
4695;DHT22;2361;49.540;8.390;2023-04-19T04:45:50;11.20;99.90
4695;DHT22;2361;49.540;8.390;2023-04-19T04:48:34;11.20;99.90
4695;DHT22;2361;49.540;8.390;2023-04-19T04:51:01;11.20;99.90
4695;DHT22;2361;49.540;8.390;2023-04-19T04:53:29;11.20;99.90
4695;DHT22;2361;49.540;8.390;2023-04-19T04:55:56;11.20;99.90
4695;DHT22;2361;49.540;8.390;2023-04-19T04:58:22;11.20;99.90
4695;DHT22;2361;49.540;8.390;2023-04-19T05:00:50;11.20;99.90
4695;DHT22;2361;49.540;8.390;2023-04-19T05:03:17;11.30;99.90
4695;DHT22;2361;49.540;8.390;2023-04-19T05:05:44;11.30;99.90
4695;DHT22;2361;49.540;8.390;2023-04-19T05:08:11;11.30;99.90
4695;DHT22;2361;49.540;8.390;2023-04-19T05:10:38;11.30;99.90
4695;DHT22;2361;49.540;8.390;2023-04-19T05:13:05;11.40;99.90
4695;DHT22;2361;49.540;8.390;2023-04-19T05:15:32;11.40;99.90
4695;DHT22;2361;49.540;8.390;2023-04-19T05:17:59;11.50;99.90
4695;DHT22;2361;49.540;8.390;2023-04-19T05:20:26;11.60;99.90
4695;DHT22;2361;49.540;8.390;2023-04-19T05:22:59;11.60;99.90
4695;DHT22;2361;49.540;8.390;2023-04-19T05:25:26;11.70;99.90
4695;DHT22;2361;49.540;8.390;2023-04-19T05:27:53;11.70;99.90
4695;DHT22;2361;49.540;8.390;2023-04-19T05:30:21;11.80;99.90
4695;DHT22;2361;49.540;8.390;2023-04-19T05:32:48;11.80;99.90
4695;DHT22;2361;49.540;8.390;2023-04-19T05:35:15;12.00;99.90
4695;DHT22;2361;49.540;8.390;2023-04-19T05:37:42;12.10;99.90
4695;DHT22;2361;49.540;8.390;2023-04-19T05:40:09;12.30;99.90
4695;DHT22;2361;49.540;8.390;2023-04-19T05:42:37;12.40;99.90
4695;DHT22;2361;49.540;8.390;2023-04-19T05:45:04;12.50;99.90
4695;DHT22;2361;49.540;8.390;2023-04-19T05:47:32;12.60;99.90
4695;DHT22;2361;49.540;8.390;2023-04-19T05:49:59;12.70;99.90
4695;DHT22;2361;49.540;8.390;2023-04-19T05:52:26;12.70;99.90
4695;DHT22;2361;49.540;8.390;2023-04-19T05:54:54;12.70;99.90
4695;DHT22;2361;49.540;8.390;2023-04-19T05:57:21;12.70;99.90
4695;DHT22;2361;49.540;8.390;2023-04-19T05:59:47;12.80;99.90
4695;DHT22;2361;49.540;8.390;2023-04-19T06:02:14;12.90;99.90
4695;DHT22;2361;49.540;8.390;2023-04-19T06:04:42;12.90;99.90
4695;DHT22;2361;49.540;8.390;2023-04-19T06:07:09;12.90;99.90
4695;DHT22;2361;49.540;8.390;2023-04-19T06:09:52;12.90;99.90
4695;DHT22;2361;49.540;8.390;2023-04-19T06:12:19;12.90;99.90
4695;DHT22;2361;49.540;8.390;2023-04-19T06:14:46;13.00;99.90
4695;DHT22;2361;49.540;8.390;2023-04-19T06:17:13;13.10;99.90
4695;DHT22;2361;49.540;8.390;2023-04-19T06:19:42;13.10;99.90
4695;DHT22;2361;49.540;8.390;2023-04-19T06:22:09;13.00;99.90
4695;DHT22;2361;49.540;8.390;2023-04-19T06:24:36;13.00;99.90
4695;DHT22;2361;49.540;8.390;2023-04-19T06:27:03;13.00;99.90
4695;DHT22;2361;49.540;8.390;2023-04-19T06:29:30;13.00;99.90
4695;DHT22;2361;49.540;8.390;2023-04-19T06:31:57;13.10;99.90
4695;DHT22;2361;49.540;8.390;2023-04-19T06:34:24;13.10;99.90
4695;DHT22;2361;49.540;8.390;2023-04-19T06:36:51;13.20;99.90
4695;DHT22;2361;49.540;8.390;2023-04-19T06:39:18;13.30;99.90
4695;DHT22;2361;49.540;8.390;2023-04-19T06:41:45;13.40;99.90
4695;DHT22;2361;49.540;8.390;2023-04-19T06:44:12;13.60;99.90
4695;DHT22;2361;49.540;8.390;2023-04-19T06:46:39;13.90;99.90
4695;DHT22;2361;49.540;8.390;2023-04-19T06:49:06;14.20;99.90
4695;DHT22;2361;49.540;8.390;2023-04-19T06:51:33;14.60;99.90
4695;DHT22;2361;49.540;8.390;2023-04-19T06:54:00;15.00;99.90
4695;DHT22;2361;49.540;8.390;2023-04-19T06:56:45;15.40;99.90
4695;DHT22;2361;49.540;8.390;2023-04-19T06:59:17;15.50;99.90
4695;DHT22;2361;49.540;8.390;2023-04-19T07:01:45;15.50;99.90
4695;DHT22;2361;49.540;8.390;2023-04-19T07:04:13;15.30;99.90
4695;DHT22;2361;49.540;8.390;2023-04-19T07:06:41;15.00;99.90
4695;DHT22;2361;49.540;8.390;2023-04-19T07:09:08;15.00;99.90
4695;DHT22;2361;49.540;8.390;2023-04-19T07:11:35;15.30;99.90
4695;DHT22;2361;49.540;8.390;2023-04-19T07:14:02;15.50;99.90
4695;DHT22;2361;49.540;8.390;2023-04-19T07:16:29;15.70;99.90
4695;DHT22;2361;49.540;8.390;2023-04-19T07:18:56;15.90;99.90
4695;DHT22;2361;49.540;8.390;2023-04-19T07:21:23;16.20;99.90
4695;DHT22;2361;49.540;8.390;2023-04-19T07:23:55;16.30;99.90
4695;DHT22;2361;49.540;8.390;2023-04-19T07:26:22;16.30;99.90
4695;DHT22;2361;49.540;8.390;2023-04-19T07:28:49;16.10;99.90
4695;DHT22;2361;49.540;8.390;2023-04-19T07:31:17;16.00;99.90
4695;DHT22;2361;49.540;8.390;2023-04-19T07:33:44;15.70;99.90
4695;DHT22;2361;49.540;8.390;2023-04-19T07:36:11;15.50;99.90
4695;DHT22;2361;49.540;8.390;2023-04-19T07:38:38;15.40;99.90
4695;DHT22;2361;49.540;8.390;2023-04-19T07:41:05;15.20;99.90
4695;DHT22;2361;49.540;8.390;2023-04-19T07:43:32;14.90;99.90
4695;DHT22;2361;49.540;8.390;2023-04-19T07:45:59;14.80;99.90
4695;DHT22;2361;49.540;8.390;2023-04-19T07:48:27;14.70;99.90
4695;DHT22;2361;49.540;8.390;2023-04-19T07:50:54;14.60;99.90
4695;DHT22;2361;49.540;8.390;2023-04-19T07:53:21;14.40;99.90
4695;DHT22;2361;49.540;8.390;2023-04-19T07:55:48;14.30;99.90
4695;DHT22;2361;49.540;8.390;2023-04-19T07:58:15;14.20;99.90
4695;DHT22;2361;49.540;8.390;2023-04-19T08:00:42;14.10;99.90
4695;DHT22;2361;49.540;8.390;2023-04-19T08:03:09;14.00;99.90
4695;DHT22;2361;49.540;8.390;2023-04-19T08:05:36;13.90;99.90
4695;DHT22;2361;49.540;8.390;2023-04-19T08:08:03;13.80;99.90
4695;DHT22;2361;49.540;8.390;2023-04-19T08:10:30;13.70;99.90
4695;DHT22;2361;49.540;8.390;2023-04-19T08:12:57;13.60;99.90
4695;DHT22;2361;49.540;8.390;2023-04-19T08:15:33;13.60;99.90
4695;DHT22;2361;49.540;8.390;2023-04-19T08:18:03;13.50;99.90
4695;DHT22;2361;49.540;8.390;2023-04-19T08:20:31;13.60;99.90
4695;DHT22;2361;49.540;8.390;2023-04-19T08:22:59;13.70;99.90
4695;DHT22;2361;49.540;8.390;2023-04-19T08:25:33;13.70;99.90
4695;DHT22;2361;49.540;8.390;2023-04-19T08:28:00;13.70;99.90
4695;DHT22;2361;49.540;8.390;2023-04-19T08:30:27;13.70;99.90
4695;DHT22;2361;49.540;8.390;2023-04-19T08:32:54;13.70;99.90
4695;DHT22;2361;49.540;8.390;2023-04-19T08:35:23;13.80;99.90
4695;DHT22;2361;49.540;8.390;2023-04-19T08:37:50;13.70;99.90
4695;DHT22;2361;49.540;8.390;2023-04-19T08:40:18;13.80;99.90
4695;DHT22;2361;49.540;8.390;2023-04-19T08:42:44;13.80;99.90
4695;DHT22;2361;49.540;8.390;2023-04-19T08:45:12;13.80;99.90
4695;DHT22;2361;49.540;8.390;2023-04-19T08:47:55;13.90;99.90
4695;DHT22;2361;49.540;8.390;2023-04-19T08:50:27;13.90;99.90
4695;DHT22;2361;49.540;8.390;2023-04-19T08:52:58;14.00;99.90
4695;DHT22;2361;49.540;8.390;2023-04-19T08:55:42;14.00;99.90
4695;DHT22;2361;49.540;8.390;2023-04-19T08:58:25;14.00;99.90
4695;DHT22;2361;49.540;8.390;2023-04-19T09:01:11;14.00;99.90
4695;DHT22;2361;49.540;8.390;2023-04-19T09:03:52;14.00;99.90
4695;DHT22;2361;49.540;8.390;2023-04-19T09:06:39;14.00;99.90
4695;DHT22;2361;49.540;8.390;2023-04-19T09:09:17;14.00;99.90
4695;DHT22;2361;49.540;8.390;2023-04-19T09:11:50;14.10;99.90
4695;DHT22;2361;49.540;8.390;2023-04-19T09:14:18;14.20;99.90
4695;DHT22;2361;49.540;8.390;2023-04-19T09:16:46;14.30;99.90
4695;DHT22;2361;49.540;8.390;2023-04-19T09:19:13;14.50;99.90
4695;DHT22;2361;49.540;8.390;2023-04-19T09:21:50;14.60;99.90
4695;DHT22;2361;49.540;8.390;2023-04-19T09:24:19;14.80;99.90
4695;DHT22;2361;49.540;8.390;2023-04-19T09:27:33;14.90;99.90
4695;DHT22;2361;49.540;8.390;2023-04-19T09:30:03;15.20;99.90
4695;DHT22;2361;49.540;8.390;2023-04-19T09:32:45;15.40;99.90
4695;DHT22;2361;49.540;8.390;2023-04-19T09:35:13;15.40;99.90
4695;DHT22;2361;49.540;8.390;2023-04-19T09:37:40;15.20;99.90
4695;DHT22;2361;49.540;8.390;2023-04-19T09:40:23;15.20;99.90
4695;DHT22;2361;49.540;8.390;2023-04-19T09:42:51;15.30;99.90
4695;DHT22;2361;49.540;8.390;2023-04-19T09:45:21;15.40;99.90
4695;DHT22;2361;49.540;8.390;2023-04-19T09:48:05;15.50;99.90
4695;DHT22;2361;49.540;8.390;2023-04-19T09:50:49;15.50;99.90
4695;DHT22;2361;49.540;8.390;2023-04-19T09:53:26;15.30;99.90
4695;DHT22;2361;49.540;8.390;2023-04-19T09:55:54;15.10;99.90
4695;DHT22;2361;49.540;8.390;2023-04-19T09:58:27;15.00;99.90
4695;DHT22;2361;49.540;8.390;2023-04-19T10:01:00;14.90;99.90
4695;DHT22;2361;49.540;8.390;2023-04-19T10:03:39;14.90;99.90
4695;DHT22;2361;49.540;8.390;2023-04-19T10:06:06;14.90;99.90
4695;DHT22;2361;49.540;8.390;2023-04-19T10:08:40;14.90;99.90
4695;DHT22;2361;49.540;8.390;2023-04-19T10:11:07;14.80;99.90
4695;DHT22;2361;49.540;8.390;2023-04-19T10:13:36;14.80;99.90
4695;DHT22;2361;49.540;8.390;2023-04-19T10:16:03;14.60;99.90
4695;DHT22;2361;49.540;8.390;2023-04-19T10:18:44;14.40;99.90
4695;DHT22;2361;49.540;8.390;2023-04-19T10:21:11;14.30;99.90
4695;DHT22;2361;49.540;8.390;2023-04-19T10:23:39;14.30;99.90
4695;DHT22;2361;49.540;8.390;2023-04-19T10:26:06;14.20;99.90
4695;DHT22;2361;49.540;8.390;2023-04-19T10:28:34;14.10;99.90
4695;DHT22;2361;49.540;8.390;2023-04-19T10:31:03;14.10;99.90
4695;DHT22;2361;49.540;8.390;2023-04-19T10:33:34;14.20;99.90
4695;DHT22;2361;49.540;8.390;2023-04-19T10:36:03;14.20;99.90
4695;DHT22;2361;49.540;8.390;2023-04-19T10:38:45;14.20;99.90
4695;DHT22;2361;49.540;8.390;2023-04-19T10:41:21;14.20;99.90
4695;DHT22;2361;49.540;8.390;2023-04-19T10:48:58;14.30;99.90
4695;DHT22;2361;49.540;8.390;2023-04-19T10:51:37;14.40;99.90
4695;DHT22;2361;49.540;8.390;2023-04-19T10:54:06;14.70;99.90
4695;DHT22;2361;49.540;8.390;2023-04-19T11:01:44;16.00;99.90
4695;DHT22;2361;49.540;8.390;2023-04-19T11:09:31;16.90;99.90
4695;DHT22;2361;49.540;8.390;2023-04-19T11:12:05;17.20;99.90
4695;DHT22;2361;49.540;8.390;2023-04-19T11:14:39;17.40;99.90
4695;DHT22;2361;49.540;8.390;2023-04-19T11:17:21;17.50;99.90
4695;DHT22;2361;49.540;8.390;2023-04-19T11:19:58;17.50;99.90
4695;DHT22;2361;49.540;8.390;2023-04-19T11:27:43;17.20;99.90
4695;DHT22;2361;49.540;8.390;2023-04-19T11:30:16;16.90;99.90
4695;DHT22;2361;49.540;8.390;2023-04-19T11:32:53;16.70;99.90
4695;DHT22;2361;49.540;8.390;2023-04-19T11:35:23;16.70;99.90
4695;DHT22;2361;49.540;8.390;2023-04-19T11:37:55;16.90;99.90
4695;DHT22;2361;49.540;8.390;2023-04-19T11:40:23;17.00;99.90
4695;DHT22;2361;49.540;8.390;2023-04-19T11:42:55;17.00;99.90
4695;DHT22;2361;49.540;8.390;2023-04-19T11:45:33;17.20;99.90
4695;DHT22;2361;49.540;8.390;2023-04-19T11:48:05;17.30;99.70
4695;DHT22;2361;49.540;8.390;2023-04-19T11:50:43;17.50;99.70
4695;DHT22;2361;49.540;8.390;2023-04-19T11:53:17;17.60;99.30
4695;DHT22;2361;49.540;8.390;2023-04-19T11:55:54;17.60;99.60
4695;DHT22;2361;49.540;8.390;2023-04-19T11:58:27;17.50;98.30
4695;DHT22;2361;49.540;8.390;2023-04-19T12:01:19;17.30;97.60
4695;DHT22;2361;49.540;8.390;2023-04-19T12:03:50;17.10;97.30
4695;DHT22;2361;49.540;8.390;2023-04-19T12:06:27;16.90;95.90
4695;DHT22;2361;49.540;8.390;2023-04-19T12:08:56;16.60;95.50
4695;DHT22;2361;49.540;8.390;2023-04-19T12:11:24;16.60;95.80
4695;DHT22;2361;49.540;8.390;2023-04-19T12:14:27;16.60;95.10
4695;DHT22;2361;49.540;8.390;2023-04-19T12:19:46;16.50;94.70
4695;DHT22;2361;49.540;8.390;2023-04-19T12:22:15;16.60;94.40
4695;DHT22;2361;49.540;8.390;2023-04-19T12:24:45;16.60;94.00
4695;DHT22;2361;49.540;8.390;2023-04-19T12:27:16;16.60;93.30
4695;DHT22;2361;49.540;8.390;2023-04-19T12:29:43;16.40;93.90
4695;DHT22;2361;49.540;8.390;2023-04-19T12:32:11;16.40;93.10
4695;DHT22;2361;49.540;8.390;2023-04-19T12:34:40;16.30;92.90
4695;DHT22;2361;49.540;8.390;2023-04-19T12:37:08;16.10;93.40
4695;DHT22;2361;49.540;8.390;2023-04-19T12:39:34;16.10;92.70
4695;DHT22;2361;49.540;8.390;2023-04-19T12:42:01;16.10;92.00
4695;DHT22;2361;49.540;8.390;2023-04-19T12:44:29;16.10;91.60
4695;DHT22;2361;49.540;8.390;2023-04-19T12:46:56;16.00;92.00
4695;DHT22;2361;49.540;8.390;2023-04-19T12:49:23;15.90;91.70
4695;DHT22;2361;49.540;8.390;2023-04-19T12:51:50;15.90;92.10
4695;DHT22;2361;49.540;8.390;2023-04-19T12:54:17;15.90;92.10
4695;DHT22;2361;49.540;8.390;2023-04-19T12:56:44;15.80;92.00
4695;DHT22;2361;49.540;8.390;2023-04-19T12:59:11;15.90;92.30
4695;DHT22;2361;49.540;8.390;2023-04-19T13:01:38;15.90;92.00
4695;DHT22;2361;49.540;8.390;2023-04-19T13:04:05;15.80;92.30
4695;DHT22;2361;49.540;8.390;2023-04-19T13:06:37;15.80;92.40
4695;DHT22;2361;49.540;8.390;2023-04-19T13:09:05;15.90;92.40
4695;DHT22;2361;49.540;8.390;2023-04-19T13:11:40;15.90;92.30
4695;DHT22;2361;49.540;8.390;2023-04-19T13:14:07;16.00;92.40
4695;DHT22;2361;49.540;8.390;2023-04-19T13:16:34;16.00;91.90
4695;DHT22;2361;49.540;8.390;2023-04-19T13:19:01;16.00;92.00
4695;DHT22;2361;49.540;8.390;2023-04-19T13:21:29;15.90;91.70
4695;DHT22;2361;49.540;8.390;2023-04-19T13:23:59;15.90;90.90
4695;DHT22;2361;49.540;8.390;2023-04-19T13:26:26;15.80;91.30
4695;DHT22;2361;49.540;8.390;2023-04-19T13:28:53;15.80;91.10
4695;DHT22;2361;49.540;8.390;2023-04-19T13:31:21;15.70;90.40
4695;DHT22;2361;49.540;8.390;2023-04-19T13:33:48;15.70;90.70
4695;DHT22;2361;49.540;8.390;2023-04-19T13:36:15;15.70;90.20
4695;DHT22;2361;49.540;8.390;2023-04-19T13:38:44;15.80;91.30
4695;DHT22;2361;49.540;8.390;2023-04-19T13:41:11;15.80;90.50
4695;DHT22;2361;49.540;8.390;2023-04-19T13:43:38;15.90;89.30
4695;DHT22;2361;49.540;8.390;2023-04-19T13:46:05;16.00;87.40
4695;DHT22;2361;49.540;8.390;2023-04-19T13:48:32;15.90;86.50
4695;DHT22;2361;49.540;8.390;2023-04-19T13:50:59;15.90;85.40
4695;DHT22;2361;49.540;8.390;2023-04-19T13:53:27;15.90;83.10
4695;DHT22;2361;49.540;8.390;2023-04-19T13:55:55;15.90;82.30
4695;DHT22;2361;49.540;8.390;2023-04-19T13:58:22;15.90;82.50
4695;DHT22;2361;49.540;8.390;2023-04-19T14:00:52;15.90;81.20
4695;DHT22;2361;49.540;8.390;2023-04-19T14:03:21;15.90;79.20
4695;DHT22;2361;49.540;8.390;2023-04-19T14:05:48;15.80;81.00
4695;DHT22;2361;49.540;8.390;2023-04-19T14:08:15;15.70;81.20
4695;DHT22;2361;49.540;8.390;2023-04-19T14:10:42;15.60;77.50
4695;DHT22;2361;49.540;8.390;2023-04-19T14:13:09;15.60;76.10
4695;DHT22;2361;49.540;8.390;2023-04-19T14:15:36;15.60;75.30
4695;DHT22;2361;49.540;8.390;2023-04-19T14:18:03;15.70;76.60
4695;DHT22;2361;49.540;8.390;2023-04-19T14:20:30;15.80;75.30
4695;DHT22;2361;49.540;8.390;2023-04-19T14:22:57;15.80;74.10
4695;DHT22;2361;49.540;8.390;2023-04-19T14:25:26;15.80;73.20
4695;DHT22;2361;49.540;8.390;2023-04-19T14:27:53;15.70;71.10
4695;DHT22;2361;49.540;8.390;2023-04-19T14:30:20;15.70;71.00
4695;DHT22;2361;49.540;8.390;2023-04-19T14:32:47;15.60;70.40
4695;DHT22;2361;49.540;8.390;2023-04-19T14:35:14;15.50;69.50
4695;DHT22;2361;49.540;8.390;2023-04-19T14:37:41;15.50;69.70
4695;DHT22;2361;49.540;8.390;2023-04-19T14:40:08;15.40;70.00
4695;DHT22;2361;49.540;8.390;2023-04-19T14:42:36;15.50;68.10
4695;DHT22;2361;49.540;8.390;2023-04-19T14:45:04;15.40;67.70
4695;DHT22;2361;49.540;8.390;2023-04-19T14:47:32;15.40;68.00
4695;DHT22;2361;49.540;8.390;2023-04-19T14:49:59;15.40;68.20
4695;DHT22;2361;49.540;8.390;2023-04-19T14:52:26;15.40;67.20
4695;DHT22;2361;49.540;8.390;2023-04-19T14:54:53;15.40;66.40
4695;DHT22;2361;49.540;8.390;2023-04-19T14:57:20;15.40;65.90
4695;DHT22;2361;49.540;8.390;2023-04-19T14:59:47;15.40;65.20
4695;DHT22;2361;49.540;8.390;2023-04-19T15:02:14;15.40;66.30
4695;DHT22;2361;49.540;8.390;2023-04-19T15:04:41;15.40;67.50
4695;DHT22;2361;49.540;8.390;2023-04-19T15:07:09;15.40;66.20
4695;DHT22;2361;49.540;8.390;2023-04-19T15:09:36;15.40;66.30
4695;DHT22;2361;49.540;8.390;2023-04-19T15:12:03;15.40;65.50
4695;DHT22;2361;49.540;8.390;2023-04-19T15:14:31;15.40;65.80
4695;DHT22;2361;49.540;8.390;2023-04-19T15:16:58;15.50;65.80
4695;DHT22;2361;49.540;8.390;2023-04-19T15:19:25;15.50;65.40
4695;DHT22;2361;49.540;8.390;2023-04-19T15:21:52;15.50;64.80
4695;DHT22;2361;49.540;8.390;2023-04-19T15:24:19;15.50;65.70
4695;DHT22;2361;49.540;8.390;2023-04-19T15:26:46;15.50;64.70
4695;DHT22;2361;49.540;8.390;2023-04-19T15:29:13;15.60;64.10
4695;DHT22;2361;49.540;8.390;2023-04-19T15:31:41;15.60;64.30
4695;DHT22;2361;49.540;8.390;2023-04-19T15:34:07;15.60;63.90
4695;DHT22;2361;49.540;8.390;2023-04-19T15:36:35;15.60;64.60
4695;DHT22;2361;49.540;8.390;2023-04-19T15:39:02;15.70;63.60
4695;DHT22;2361;49.540;8.390;2023-04-19T15:41:29;15.70;62.50
4695;DHT22;2361;49.540;8.390;2023-04-19T15:43:56;15.70;63.10
4695;DHT22;2361;49.540;8.390;2023-04-19T15:46:23;15.90;64.00
4695;DHT22;2361;49.540;8.390;2023-04-19T15:48:50;15.90;62.00
4695;DHT22;2361;49.540;8.390;2023-04-19T15:51:17;15.90;61.50
4695;DHT22;2361;49.540;8.390;2023-04-19T15:53:44;15.80;60.20
4695;DHT22;2361;49.540;8.390;2023-04-19T15:56:11;15.80;60.90
4695;DHT22;2361;49.540;8.390;2023-04-19T15:58:38;15.70;61.40
4695;DHT22;2361;49.540;8.390;2023-04-19T16:01:11;15.70;63.00
4695;DHT22;2361;49.540;8.390;2023-04-19T16:03:39;15.70;62.70
4695;DHT22;2361;49.540;8.390;2023-04-19T16:06:08;15.70;61.50
4695;DHT22;2361;49.540;8.390;2023-04-19T16:08:35;15.60;62.30
4695;DHT22;2361;49.540;8.390;2023-04-19T16:11:03;15.50;60.80
4695;DHT22;2361;49.540;8.390;2023-04-19T16:13:31;15.50;61.70
4695;DHT22;2361;49.540;8.390;2023-04-19T16:15:59;15.40;60.50
4695;DHT22;2361;49.540;8.390;2023-04-19T16:18:26;15.40;59.90
4695;DHT22;2361;49.540;8.390;2023-04-19T16:20:53;15.30;59.40
4695;DHT22;2361;49.540;8.390;2023-04-19T16:23:22;15.30;60.20
4695;DHT22;2361;49.540;8.390;2023-04-19T16:25:49;15.30;59.20
4695;DHT22;2361;49.540;8.390;2023-04-19T16:28:17;15.20;59.80
4695;DHT22;2361;49.540;8.390;2023-04-19T16:30:45;15.10;59.60
4695;DHT22;2361;49.540;8.390;2023-04-19T16:33:13;15.20;60.00
4695;DHT22;2361;49.540;8.390;2023-04-19T16:35:41;15.20;60.20